Terminal Aerodrome Forecast
Issued by NWS

Home | Current Version | Previous Version | Text Only | Print | Product List | Glossary On
Versions: 1 2 3 4 5 6 7 8 9 10 11 12 13 14 15 16 17 18 19 20 21 22 23
000
FTUS43 KFGF 280520
TAFTVF
TAF
KTVF 280520Z 2806/2906 04005KT P6SM OVC100
     FM280700 05004KT P6SM VCSH OVC090
     FM280900 05004KT P6SM OVC070
     FM281900 08005KT P6SM SCT130=

USA.gov is the U.S. government's official web portal to all federal, state and local government web resources and services.